Time;durP1;ratioP1;P1;durP2;ratioP2;P2;SDS_P1;SDS_P2;PMS_P1;PMS_P2;Temp;Humidity;BMP_temperature;BMP_pressure;BME280_temperature;BME280_humidity;BME280_pressure;Samples;Min_cycle;Max_cycle;Signal;HPM_P1;HPM_P2
2024/01/01 00:01:28;;;;;;;24.20;15.20;;;;;;;7.04;97.15;99680.53;5004134;28;20053;-76
2024/01/01 00:03:54;;;;;;;15.88;9.45;;;;;;;7.08;95.48;99684.72;4986744;28;20302;-76
2024/01/01 00:06:19;;;;;;;14.38;7.72;;;;;;;7.01;96.55;99678.03;4998577;28;20560;-75
2024/01/01 00:08:44;;;;;;;13.63;6.45;;;;;;;6.80;99.74;99678.25;5005004;28;20492;-75
2024/01/01 00:11:10;;;;;;;13.23;6.18;;;;;;;6.61;100.00;99690.78;4997926;28;20034;-76
2024/01/01 00:13:35;;;;;;;18.63;8.02;;;;;;;6.30;100.00;99707.38;5003489;28;20026;-76
2024/01/01 00:16:00;;;;;;;18.83;7.65;;;;;;;6.13;100.00;99701.16;5003778;28;20049;-77
2024/01/01 00:18:26;;;;;;;20.38;11.50;;;;;;;6.08;100.00;99724.31;5004557;28;20076;-76
2024/01/01 00:20:51;;;;;;;13.90;9.32;;;;;;;6.01;100.00;99714.97;5002716;28;20038;-76
2024/01/01 00:23:16;;;;;;;14.70;9.60;;;;;;;5.82;100.00;99725.56;4999884;28;20088;-76
2024/01/01 00:25:42;;;;;;;12.75;7.10;;;;;;;5.77;100.00;99718.78;5002463;28;20453;-78
2024/01/01 00:28:07;;;;;;;13.55;8.75;;;;;;;5.63;100.00;99727.41;5002909;28;20318;-77
2024/01/01 00:30:33;;;;;;;14.68;8.48;;;;;;;5.56;100.00;99732.13;5002852;28;20076;-77
2024/01/01 00:32:59;;;;;;;12.85;7.00;;;;;;;5.47;100.00;99724.63;4982149;28;20030;-77
2024/01/01 00:35:27;;;;;;;10.23;3.95;;;;;;;5.46;100.00;99728.19;5002253;28;20528;-78
2024/01/01 00:37:54;;;;;;;9.88;5.30;;;;;;;5.31;100.00;99737.72;5001872;28;20036;-78
2024/01/01 00:40:19;;;;;;;11.30;4.80;;;;;;;5.20;100.00;99740.00;4984476;28;20069;-79
2024/01/01 00:42:47;;;;;;;9.85;5.57;;;;;;;5.12;100.00;99744.75;5001071;28;20068;-78
2024/01/01 00:45:13;;;;;;;9.35;5.05;;;;;;;4.98;100.00;99714.59;4985891;28;20233;-80
2024/01/01 00:47:38;;;;;;;9.50;5.55;;;;;;;4.87;100.00;99731.84;5000506;28;20045;-79
2024/01/01 00:50:04;;;;;;;9.63;4.80;;;;;;;4.86;100.00;99733.63;5002492;28;20034;-78
2024/01/01 00:52:30;;;;;;;11.25;5.65;;;;;;;4.82;100.00;99734.69;4996286;28;20173;-77
2024/01/01 00:54:58;;;;;;;10.90;6.55;;;;;;;4.71;100.00;99726.38;4995014;28;20034;-77
2024/01/01 00:57:23;;;;;;;11.63;5.65;;;;;;;4.54;100.00;99721.88;5000835;28;20753;-76
2024/01/01 00:59:48;;;;;;;6.72;4.60;;;;;;;4.52;100.00;99717.59;4993050;28;20108;-76
2024/01/01 01:02:14;;;;;;;8.68;4.65;;;;;;;4.47;100.00;99713.38;4996035;28;20316;-78
2024/01/01 01:04:42;;;;;;;6.95;4.28;;;;;;;4.50;100.00;99731.69;5002313;28;20034;-78
2024/01/01 01:07:07;;;;;;;9.73;4.50;;;;;;;4.48;100.00;99735.31;4986369;28;20038;-79
2024/01/01 01:09:33;;;;;;;9.07;4.30;;;;;;;4.36;100.00;99715.63;4999283;28;20385;-79
2024/01/01 01:11:58;;;;;;;8.73;4.18;;;;;;;4.43;100.00;99730.25;5002016;28;20030;-78
2024/01/01 01:14:23;;;;;;;14.55;5.18;;;;;;;4.46;100.00;99726.59;5002803;28;20044;-78
2024/01/01 01:16:49;;;;;;;10.45;6.03;;;;;;;4.48;100.00;99741.44;5004628;28;20042;-79
2024/01/01 01:19:14;;;;;;;11.95;5.68;;;;;;;4.52;100.00;99731.63;4988532;28;20042;-77
2024/01/01 01:21:40;;;;;;;9.65;4.90;;;;;;;4.58;100.00;99738.41;4971165;28;20046;-77
2024/01/01 01:24:05;;;;;;;6.38;4.32;;;;;;;4.51;100.00;99729.91;5001696;28;20121;-77
2024/01/01 01:26:30;;;;;;;9.63;4.57;;;;;;;4.64;100.00;99740.75;5003776;28;20042;-79
2024/01/01 01:28:56;;;;;;;13.77;5.43;;;;;;;4.53;100.00;99727.22;5001684;28;20053;-79
2024/01/01 01:31:22;;;;;;;11.25;4.80;;;;;;;4.62;100.00;99740.84;5002265;28;20077;-79
2024/01/01 01:33:48;;;;;;;12.80;4.70;;;;;;;4.49;100.00;99711.53;5003552;28;20046;-78
2024/01/01 01:36:14;;;;;;;11.27;4.40;;;;;;;4.65;100.00;99747.75;5003332;28;20571;-78
2024/01/01 01:38:39;;;;;;;9.52;4.60;;;;;;;4.51;100.00;99740.44;5003199;28;20057;-79
2024/01/01 01:41:05;;;;;;;10.75;4.18;;;;;;;4.65;100.00;99745.97;5003453;28;20068;-78
2024/01/01 01:43:30;;;;;;;11.90;5.07;;;;;;;4.51;100.00;99724.63;5000010;28;20081;-80
2024/01/01 01:45:59;;;;;;;11.57;4.68;;;;;;;4.61;100.00;99739.13;4989174;28;20424;-78
2024/01/01 01:48:27;;;;;;;12.75;4.45;;;;;;;4.62;100.00;99743.47;4999683;28;20415;-77
2024/01/01 01:50:54;;;;;;;11.20;4.80;;;;;;;4.57;100.00;99731.44;4984262;28;20034;-79
2024/01/01 01:53:23;;;;;;;12.38;6.05;;;;;;;4.61;100.00;99727.72;5002764;28;20046;-79
2024/01/01 01:55:50;;;;;;;12.43;5.80;;;;;;;4.67;100.00;99746.75;5000200;28;20042;-77
2024/01/01 01:58:16;;;;;;;12.77;4.88;;;;;;;4.65;100.00;99745.13;5000684;28;20051;-76
2024/01/01 02:00:42;;;;;;;14.20;4.90;;;;;;;4.56;100.00;99738.47;4994231;28;20093;-76
2024/01/01 02:03:08;;;;;;;12.48;5.05;;;;;;;4.65;100.00;99740.69;4998797;28;20041;-76
2024/01/01 02:05:33;;;;;;;17.70;5.15;;;;;;;4.57;100.00;99736.69;5000133;28;20076;-77
2024/01/01 02:08:00;;;;;;;17.20;5.07;;;;;;;4.52;100.00;99722.88;4999671;28;20061;-76
2024/01/01 02:10:26;;;;;;;13.18;5.05;;;;;;;4.62;100.00;99743.47;4997484;28;20065;-76
2024/01/01 02:12:51;;;;;;;16.27;4.65;;;;;;;4.46;100.00;99724.81;5001211;28;20338;-76
2024/01/01 02:15:17;;;;;;;14.23;4.65;;;;;;;4.66;100.00;99741.56;5001101;28;20034;-76
2024/01/01 02:17:42;;;;;;;14.45;4.63;;;;;;;4.66;100.00;99752.09;5000097;28;20519;-76
2024/01/01 02:20:07;;;;;;;14.48;4.68;;;;;;;4.64;100.00;99746.03;5001056;28;20568;-76
2024/01/01 02:22:37;;;;;;;13.95;4.60;;;;;;;4.68;100.00;99740.56;5005000;28;20041;-76
2024/01/01 02:25:04;;;;;;;15.98;6.70;;;;;;;4.69;100.00;99750.19;5003361;28;20496;-78
2024/01/01 02:27:29;;;;;;;17.40;4.55;;;;;;;4.74;100.00;99747.34;5007090;28;20037;-79
2024/01/01 02:29:55;;;;;;;17.00;4.60;;;;;;;4.76;100.00;99748.13;5003914;28;20049;-79
2024/01/01 02:32:21;;;;;;;17.58;4.60;;;;;;;4.73;100.00;99746.50;5008071;28;20452;-78
2024/01/01 02:34:48;;;;;;;15.73;4.88;;;;;;;4.74;100.00;99755.25;5008522;28;20046;-78
2024/01/01 02:37:13;;;;;;;13.77;4.80;;;;;;;4.74;100.00;99748.19;5005503;28;20061;-77
2024/01/01 02:39:38;;;;;;;18.00;5.18;;;;;;;4.81;100.00;99750.53;5005373;28;20069;-78
2024/01/01 02:42:04;;;;;;;12.00;4.50;;;;;;;4.79;100.00;99769.06;5005006;28;20400;-77
2024/01/01 02:44:29;;;;;;;12.77;4.45;;;;;;;4.81;100.00;99769.00;5004671;28;20532;-77
2024/01/01 02:46:57;;;;;;;13.25;4.20;;;;;;;4.81;100.00;99753.19;5003650;28;20041;-78
2024/01/01 02:49:23;;;;;;;15.40;4.72;;;;;;;4.85;100.00;99763.56;5007213;28;20037;-77
2024/01/01 02:51:48;;;;;;;16.98;5.05;;;;;;;4.79;100.00;99769.06;5001823;28;20030;-77
2024/01/01 02:54:14;;;;;;;27.10;13.02;;;;;;;4.78;100.00;99772.66;5006099;28;20045;-77
2024/01/01 02:56:40;;;;;;;14.63;4.38;;;;;;;4.80;100.00;99757.59;4971224;28;20040;-76
2024/01/01 02:59:05;;;;;;;13.52;4.65;;;;;;;4.84;100.00;99769.72;5004158;28;20033;-78
2024/01/01 03:01:30;;;;;;;11.88;4.25;;;;;;;4.86;100.00;99756.50;5005130;28;20092;-78
2024/01/01 03:03:56;;;;;;;16.40;3.97;;;;;;;4.89;100.00;99754.59;5003219;28;20068;-75
2024/01/01 03:06:21;;;;;;;12.85;4.20;;;;;;;4.89;100.00;99756.34;5016258;28;20496;-77
2024/01/01 03:08:47;;;;;;;11.88;4.47;;;;;;;4.89;100.00;99767.75;5001292;28;20078;-77
2024/01/01 03:11:12;;;;;;;14.57;4.30;;;;;;;4.83;100.00;99764.53;5005178;28;20074;-78
2024/01/01 03:13:37;;;;;;;18.17;4.47;;;;;;;4.72;100.00;99763.25;5008976;28;20048;-78
2024/01/01 03:16:03;;;;;;;16.00;4.38;;;;;;;4.78;100.00;99777.06;5006395;28;20112;-79
2024/01/01 03:18:29;;;;;;;12.73;4.70;;;;;;;4.72;100.00;99778.16;5005656;28;20092;-79
2024/01/01 03:20:55;;;;;;;15.18;4.15;;;;;;;4.68;100.00;99772.22;5006293;28;20026;-79
2024/01/01 03:23:21;;;;;;;13.27;4.53;;;;;;;4.55;100.00;99764.88;5008245;28;20476;-79
2024/01/01 03:25:46;;;;;;;13.02;4.30;;;;;;;4.68;100.00;99790.66;5005583;28;20057;-78
2024/01/01 03:28:12;;;;;;;17.33;4.40;;;;;;;4.67;100.00;99804.72;5004602;28;20387;-77
2024/01/01 03:30:37;;;;;;;17.48;4.35;;;;;;;4.70;100.00;99782.66;5003302;28;20057;-77
2024/01/01 03:33:03;;;;;;;17.52;4.68;;;;;;;4.69;100.00;99794.16;5007267;28;20044;-76
2024/01/01 03:35:31;;;;;;;16.27;4.32;;;;;;;4.78;100.00;99791.09;4989985;28;20034;-77
2024/01/01 03:37:59;;;;;;;21.85;4.85;;;;;;;4.83;100.00;99812.00;4990531;28;20477;-77
2024/01/01 03:40:25;;;;;;;14.43;4.47;;;;;;;4.72;100.00;99799.25;4988242;28;20128;-78
2024/01/01 03:42:51;;;;;;;15.75;4.55;;;;;;;4.84;100.00;99809.28;5007404;28;20460;-77
2024/01/01 03:45:16;;;;;;;16.95;4.32;;;;;;;4.79;100.00;99789.31;5007821;28;20048;-76
2024/01/01 03:47:42;;;;;;;15.55;3.95;;;;;;;4.89;100.00;99803.78;5004370;28;20033;-78
2024/01/01 03:50:08;;;;;;;17.63;3.97;;;;;;;4.85;100.00;99802.22;5005401;28;20119;-79
2024/01/01 03:52:33;;;;;;;12.48;4.07;;;;;;;4.90;100.00;99816.94;5009360;28;20080;-79
2024/01/01 03:54:59;;;;;;;14.90;4.30;;;;;;;4.83;100.00;99796.16;5008394;28;20037;-78
2024/01/01 03:57:25;;;;;;;13.50;4.00;;;;;;;4.73;100.00;99788.66;5005193;28;20045;-79
2024/01/01 03:59:51;;;;;;;16.23;3.70;;;;;;;4.80;100.00;99812.97;4986281;28;20040;-79
2024/01/01 04:02:18;;;;;;;13.60;3.83;;;;;;;4.76;100.00;99795.56;5005420;28;20092;-78
2024/01/01 04:04:44;;;;;;;12.77;4.10;;;;;;;4.83;100.00;99812.84;4999311;28;20101;-78
2024/01/01 04:07:10;;;;;;;12.95;3.78;;;;;;;4.83;100.00;99802.28;5006728;28;20073;-78
2024/01/01 04:09:35;;;;;;;12.25;3.55;;;;;;;4.83;100.00;99807.56;5002398;28;20034;-79
2024/01/01 04:12:01;;;;;;;14.73;4.22;;;;;;;4.79;100.00;99803.34;5003524;28;20539;-77
2024/01/01 04:14:26;;;;;;;18.50;4.80;;;;;;;4.84;100.00;99811.91;5004428;28;20384;-76
2024/01/01 04:16:52;;;;;;;13.98;4.20;;;;;;;4.80;100.00;99812.13;5002831;28;20504;-77
2024/01/01 04:19:17;;;;;;;14.15;4.20;;;;;;;4.69;100.00;99817.88;5003748;28;20057;-76
2024/01/01 04:21:42;;;;;;;14.18;3.63;;;;;;;4.72;100.00;99815.06;5004550;28;20057;-76
2024/01/01 04:24:08;;;;;;;15.57;3.88;;;;;;;4.57;100.00;99794.66;5002808;28;20046;-77
2024/01/01 04:26:34;;;;;;;16.38;3.80;;;;;;;4.72;100.00;99828.25;4995225;28;20052;-78
2024/01/01 04:28:59;;;;;;;8.70;3.20;;;;;;;4.63;100.00;99816.31;4985014;28;20089;-78
2024/01/01 04:31:28;;;;;;;11.75;3.35;;;;;;;4.62;100.00;99808.50;4969524;28;20046;-79
2024/01/01 04:33:53;;;;;;;11.07;3.72;;;;;;;4.68;100.00;99824.91;4986348;28;20049;-79
2024/01/01 04:36:18;;;;;;;13.35;3.38;;;;;;;4.66;100.00;99815.34;4982852;28;20034;-78
2024/01/01 04:38:44;;;;;;;12.70;3.50;;;;;;;4.66;100.00;99818.00;4984862;28;20165;-79
2024/01/01 04:41:09;;;;;;;12.52;3.72;;;;;;;4.71;100.00;99816.84;4967729;28;20388;-78
2024/01/01 04:43:35;;;;;;;11.18;3.90;;;;;;;4.69;100.00;99831.06;4966179;28;20441;-79
2024/01/01 04:46:01;;;;;;;10.77;3.50;;;;;;;4.70;100.00;99822.22;4983289;28;20042;-79
2024/01/01 04:48:26;;;;;;;12.95;3.58;;;;;;;4.69;100.00;99817.88;4982826;28;20042;-79
2024/01/01 04:50:51;;;;;;;17.13;4.45;;;;;;;4.63;100.00;99783.84;4981010;28;20030;-79
2024/01/01 04:53:17;;;;;;;13.75;3.70;;;;;;;4.71;100.00;99818.66;4987532;28;20038;-79
2024/01/01 04:55:42;;;;;;;12.55;3.67;;;;;;;4.75;100.00;99825.50;4978271;28;20413;-78
2024/01/01 04:58:07;;;;;;;13.88;3.70;;;;;;;4.73;100.00;99809.75;4980996;28;20298;-78
2024/01/01 05:00:33;;;;;;;11.60;3.70;;;;;;;4.38;100.00;99763.81;4978731;28;20046;-78
2024/01/01 05:02:58;;;;;;;13.00;3.75;;;;;;;4.66;100.00;99810.94;4967238;28;20128;-78
2024/01/01 05:05:24;;;;;;;14.55;3.90;;;;;;;4.66;100.00;99818.00;4966673;28;20045;-79
2024/01/01 05:07:52;;;;;;;11.40;3.55;;;;;;;4.73;100.00;99832.63;4993083;28;20129;-79
2024/01/01 05:10:17;;;;;;;11.38;4.10;;;;;;;4.64;100.00;99806.63;4985292;28;20038;-79
2024/01/01 05:12:44;;;;;;;13.35;4.18;;;;;;;4.77;100.00;99836.84;4964257;28;20261;-79
2024/01/01 05:15:11;;;;;;;12.52;3.38;;;;;;;4.86;100.00;99836.44;4984184;28;20046;-78
2024/01/01 05:17:37;;;;;;;11.15;3.17;;;;;;;4.93;100.00;99847.56;4982978;28;20034;-78
2024/01/01 05:20:03;;;;;;;8.95;2.88;;;;;;;4.98;100.00;99848.25;4969411;28;20048;-78
2024/01/01 05:22:30;;;;;;;13.80;3.58;;;;;;;4.98;100.00;99846.47;4985894;28;20034;-77
2024/01/01 05:24:56;;;;;;;8.65;2.83;;;;;;;5.03;100.00;99855.94;4953445;28;20065;-77
2024/01/01 05:27:21;;;;;;;8.65;3.10;;;;;;;5.09;100.00;99856.53;4985048;28;20039;-78
2024/01/01 05:29:47;;;;;;;8.80;2.90;;;;;;;5.07;100.00;99841.72;4980713;28;20049;-78
2024/01/01 05:32:13;;;;;;;9.57;3.47;;;;;;;5.13;100.00;99862.53;4971813;28;20439;-78
2024/01/01 05:34:40;;;;;;;11.55;3.40;;;;;;;5.16;100.00;99865.88;4985083;28;20191;-79
2024/01/01 05:37:06;;;;;;;14.35;3.50;;;;;;;4.98;100.00;99838.53;4972179;28;20037;-78
2024/01/01 05:39:31;;;;;;;8.80;3.10;;;;;;;5.11;100.00;99880.22;4967996;28;20027;-79
2024/01/01 05:41:56;;;;;;;9.45;3.45;;;;;;;4.89;100.00;99851.25;4983980;28;20034;-77
2024/01/01 05:44:22;;;;;;;9.10;3.28;;;;;;;4.99;100.00;99871.03;4956817;28;20054;-78
2024/01/01 05:46:49;;;;;;;11.85;3.22;;;;;;;5.09;100.00;99869.72;4983937;28;20038;-77
2024/01/01 05:49:15;;;;;;;11.70;3.03;;;;;;;5.13;100.00;99868.66;4984963;28;20038;-77
2024/01/01 05:51:40;;;;;;;11.95;3.58;;;;;;;5.09;100.00;99869.72;4959095;28;20034;-78
2024/01/01 05:54:06;;;;;;;11.18;2.95;;;;;;;4.98;100.00;99875.47;4989483;28;20128;-77
2024/01/01 05:56:31;;;;;;;8.02;3.08;;;;;;;4.95;100.00;99862.41;4981515;28;20061;-79
2024/01/01 05:58:56;;;;;;;9.05;3.05;;;;;;;5.00;100.00;99885.94;4982925;28;20081;-78
2024/01/01 06:01:23;;;;;;;9.27;3.30;;;;;;;4.92;100.00;99875.72;4984751;28;20252;-79
2024/01/01 06:03:48;;;;;;;10.07;3.38;;;;;;;4.94;100.00;99868.59;4986114;28;20042;-79
2024/01/01 06:06:15;;;;;;;9.57;3.15;;;;;;;5.02;100.00;99892.03;4988849;28;20038;-80
2024/01/01 06:08:40;;;;;;;9.82;3.53;;;;;;;4.90;100.00;99879.38;5002854;28;20069;-79
2024/01/01 06:11:05;;;;;;;9.57;3.40;;;;;;;5.04;100.00;99899.84;4987979;28;20038;-79
2024/01/01 06:13:31;;;;;;;11.13;3.50;;;;;;;4.99;100.00;99898.28;4984959;28;20070;-80
2024/01/01 06:15:56;;;;;;;9.80;3.15;;;;;;;4.97;100.00;99878.16;4981868;28;20038;-80
2024/01/01 06:18:22;;;;;;;7.75;3.15;;;;;;;5.02;100.00;99899.94;4986388;28;20034;-78
2024/01/01 06:20:49;;;;;;;10.00;3.05;;;;;;;5.06;100.00;99908.53;4987613;28;20669;-78
2024/01/01 06:23:16;;;;;;;12.60;3.70;;;;;;;4.96;100.00;99911.56;5000937;28;20068;-78
2024/01/01 06:25:41;;;;;;;8.60;2.80;;;;;;;4.78;100.00;99904.47;4994873;28;20124;-77
2024/01/01 06:28:08;;;;;;;9.05;3.17;;;;;;;4.79;100.00;99918.50;5018657;28;20293;-77
2024/01/01 06:30:34;;;;;;;11.88;3.40;;;;;;;4.69;100.00;99915.41;5006348;28;20057;-76
2024/01/01 06:33:02;;;;;;;10.93;3.10;;;;;;;4.67;100.00;99915.44;4983109;28;20034;-77
2024/01/01 06:35:30;;;;;;;10.60;3.45;;;;;;;4.67;100.00;99931.25;5004828;28;20037;-76
2024/01/01 06:37:59;;;;;;;13.13;3.15;;;;;;;4.73;100.00;99936.28;4983190;28;20029;-76
2024/01/01 06:40:26;;;;;;;11.52;3.05;;;;;;;4.78;100.00;99940.53;5002916;28;20069;-77
2024/01/01 06:42:51;;;;;;;7.05;2.97;;;;;;;4.77;100.00;99933.53;5003679;28;20061;-76
2024/01/01 06:45:17;;;;;;;10.90;3.15;;;;;;;4.74;100.00;99940.63;5001353;28;20772;-78
2024/01/01 06:47:42;;;;;;;10.30;2.72;;;;;;;4.86;100.00;99959.50;5002966;28;20080;-78
2024/01/01 06:50:08;;;;;;;10.57;3.22;;;;;;;4.81;100.00;99950.91;5001505;28;20061;-78
2024/01/01 06:52:33;;;;;;;12.32;3.38;;;;;;;4.93;100.00;99972.38;5005171;28;20076;-77
2024/01/01 06:54:59;;;;;;;10.48;3.08;;;;;;;4.96;100.00;99966.97;4999056;28;20092;-77
2024/01/01 06:57:27;;;;;;;9.80;3.05;;;;;;;4.98;100.00;99970.41;5001603;28;20034;-77
2024/01/01 06:59:54;;;;;;;6.18;2.55;;;;;;;4.85;100.00;99953.38;4994895;28;20092;-77
2024/01/01 07:02:19;;;;;;;10.43;3.25;;;;;;;4.98;100.00;99975.69;4983060;28;20500;-78
2024/01/01 07:04:45;;;;;;;10.95;3.10;;;;;;;4.92;100.00;99982.97;5002991;28;20044;-77
2024/01/01 07:07:10;;;;;;;12.80;3.85;;;;;;;4.88;100.00;99982.25;5005199;28;20453;-78
2024/01/01 07:09:36;;;;;;;10.25;3.67;;;;;;;4.86;100.00;99983.25;5010597;28;20492;-77
2024/01/01 07:12:20;;;;;;;9.05;3.30;;;;;;;4.85;100.00;99985.03;5009544;28;20038;-78
2024/01/01 07:14:49;;;;;;;8.85;3.40;;;;;;;4.66;100.00;99962.97;5002981;28;20251;-78
2024/01/01 07:17:15;;;;;;;10.75;3.40;;;;;;;4.80;100.00;99994.88;5005121;28;20029;-79
2024/01/01 07:19:44;;;;;;;8.65;3.10;;;;;;;4.82;100.00;100000.97;5006252;28;20073;-78
2024/01/01 07:22:10;;;;;;;9.45;3.15;;;;;;;4.86;100.00;99996.44;5009036;28;20052;-77
2024/01/01 07:24:35;;;;;;;6.82;3.13;;;;;;;4.90;100.00;100019.97;5007799;28;20038;-78
2024/01/01 07:27:01;;;;;;;11.05;3.50;;;;;;;4.85;100.00;100003.47;5004203;28;20091;-76
2024/01/01 07:29:30;;;;;;;9.95;3.35;;;;;;;4.91;100.00;100010.28;5002962;28;20116;-77
2024/01/01 07:31:58;;;;;;;11.60;3.28;;;;;;;4.89;100.00;100006.81;5008742;28;20305;-77
2024/01/01 07:34:26;;;;;;;11.85;3.35;;;;;;;4.83;100.00;100026.41;5009207;28;20038;-77
2024/01/01 07:36:54;;;;;;;10.38;2.85;;;;;;;4.77;100.00;100012.63;5019606;28;20041;-78
2024/01/01 07:39:23;;;;;;;14.40;3.78;;;;;;;4.82;100.00;100032.59;4995338;28;20046;-78
2024/01/01 07:41:51;;;;;;;11.88;3.03;;;;;;;4.70;100.00;100018.13;5010654;28;20029;-78
2024/01/01 07:44:17;;;;;;;8.20;3.15;;;;;;;4.79;100.00;100037.13;4991499;28;20056;-77
2024/01/01 07:46:43;;;;;;;10.68;3.50;;;;;;;4.74;100.00;100040.81;5004795;28;20415;-77
2024/01/01 07:49:08;;;;;;;9.80;3.58;;;;;;;4.70;100.00;100039.22;5004481;28;20060;-77
2024/01/01 07:51:34;;;;;;;11.43;3.47;;;;;;;4.59;100.00;100008.91;5004122;28;20037;-78
2024/01/01 07:54:00;;;;;;;8.45;3.55;;;;;;;4.71;100.00;100040.06;5006447;28;20305;-78
2024/01/01 07:56:28;;;;;;;8.60;2.97;;;;;;;4.69;100.00;100036.66;5006543;28;20066;-77
2024/01/01 07:58:54;;;;;;;12.57;3.38;;;;;;;4.66;100.00;100037.63;5002932;28;20583;-77
2024/01/01 08:01:20;;;;;;;10.52;3.33;;;;;;;4.61;100.00;100033.47;5005634;28;20042;-78
2024/01/01 08:03:45;;;;;;;10.18;3.40;;;;;;;4.62;100.00;100040.44;5009270;28;20155;-78
2024/01/01 08:06:11;;;;;;;10.38;3.45;;;;;;;4.57;100.00;100037.13;5008716;28;20572;-78
2024/01/01 08:08:36;;;;;;;10.48;2.85;;;;;;;4.56;100.00;100041.53;5010021;28;20513;-77
2024/01/01 08:11:02;;;;;;;13.82;4.35;;;;;;;4.52;100.00;100044.38;5010374;28;20048;-78
2024/01/01 08:13:27;;;;;;;12.25;4.18;;;;;;;4.48;100.00;100057.66;4990651;28;20041;-78
2024/01/01 08:15:53;;;;;;;14.25;3.75;;;;;;;4.44;100.00;100068.38;5004517;28;20124;-78
2024/01/01 08:18:18;;;;;;;12.02;3.13;;;;;;;4.55;100.00;100063.53;5006905;28;20192;-78
2024/01/01 08:20:44;;;;;;;11.55;3.13;;;;;;;4.38;100.00;100045.72;4983003;28;20121;-78
2024/01/01 08:23:10;;;;;;;11.32;3.35;;;;;;;4.53;100.00;100072.44;5002813;28;20029;-77
2024/01/01 08:25:36;;;;;;;12.90;3.40;;;;;;;4.59;100.00;100083.56;4980623;28;20057;-77
2024/01/01 08:28:01;;;;;;;12.07;3.33;;;;;;;4.63;100.00;100065.88;4983491;28;20038;-77
2024/01/01 08:30:27;;;;;;;12.23;3.50;;;;;;;4.70;100.00;100072.63;4980808;28;20141;-77
2024/01/01 08:32:52;;;;;;;8.55;3.00;;;;;;;4.53;100.00;100056.63;4984622;28;20041;-77
2024/01/01 08:35:19;;;;;;;9.15;3.35;;;;;;;4.74;100.00;100092.69;4985318;28;20144;-79
2024/01/01 08:37:47;;;;;;;12.43;4.05;;;;;;;4.74;100.00;100098.81;4984943;28;20492;-77
2024/01/01 08:40:13;;;;;;;14.35;3.67;;;;;;;4.62;100.00;100072.06;4986360;28;20053;-79
2024/01/01 08:42:38;;;;;;;11.30;3.92;;;;;;;4.85;100.00;100101.03;4963839;28;20050;-77
2024/01/01 08:45:04;;;;;;;10.52;3.42;;;;;;;4.92;100.00;100107.78;4977319;28;20038;-77
2024/01/01 08:47:29;;;;;;;8.60;3.35;;;;;;;4.87;100.00;100096.56;4983643;28;20077;-76
2024/01/01 08:49:59;;;;;;;16.92;3.95;;;;;;;5.00;100.00;100110.09;4983825;28;20042;-76
2024/01/01 08:52:28;;;;;;;10.07;4.05;;;;;;;5.04;100.00;100101.16;4985528;28;20357;-77
2024/01/01 08:54:53;;;;;;;9.65;3.95;;;;;;;5.04;100.00;100105.56;4983393;28;20166;-78
2024/01/01 08:57:18;;;;;;;15.55;3.85;;;;;;;5.02;100.00;100110.03;4983895;28;20121;-78
2024/01/01 08:59:44;;;;;;;10.68;3.70;;;;;;;5.03;100.00;100119.69;4983243;28;20211;-78
2024/01/01 09:02:10;;;;;;;11.50;3.83;;;;;;;4.95;100.00;100112.06;4982575;28;20034;-77
2024/01/01 09:04:35;;;;;;;11.65;3.67;;;;;;;5.05;100.00;100121.31;4971690;28;20479;-78
2024/01/01 09:07:02;;;;;;;8.60;3.45;;;;;;;5.11;100.00;100138.72;4983086;28;20041;-78
2024/01/01 09:09:28;;;;;;;13.18;3.88;;;;;;;5.08;100.00;100128.28;4967108;28;20050;-78
2024/01/01 09:11:53;;;;;;;10.60;3.92;;;;;;;5.13;100.00;100142.13;4982613;28;20034;-77
2024/01/01 09:14:19;;;;;;;9.50;3.38;;;;;;;5.01;100.00;100122.38;4979857;28;20150;-77
2024/01/01 09:16:45;;;;;;;12.50;3.97;;;;;;;5.12;100.00;100132.50;4979833;28;20360;-77
2024/01/01 09:19:10;;;;;;;13.52;3.85;;;;;;;5.04;100.00;100132.81;4961747;28;20064;-76
2024/01/01 09:21:36;;;;;;;12.38;3.90;;;;;;;5.12;100.00;100150.97;4981899;28;20066;-76
2024/01/01 09:24:01;;;;;;;10.35;3.58;;;;;;;5.06;100.00;100130.09;4980484;28;20042;-76
2024/01/01 09:26:29;;;;;;;9.52;3.35;;;;;;;5.25;100.00;100134.59;4995064;28;20321;-79
2024/01/01 09:28:58;;;;;;;9.13;2.80;;;;;;;5.36;100.00;100160.56;4999437;28;20040;-77
2024/01/01 09:31:23;;;;;;;9.88;3.88;;;;;;;5.40;100.00;100161.28;5000465;28;20026;-77
2024/01/01 09:33:48;;;;;;;12.95;3.75;;;;;;;5.39;100.00;100160.44;5002163;28;20574;-78
2024/01/01 09:36:14;;;;;;;7.50;2.92;;;;;;;5.39;100.00;100165.72;4981937;28;20041;-78
2024/01/01 09:38:44;;;;;;;10.48;3.58;;;;;;;5.30;100.00;100150.22;5003034;28;20392;-79
2024/01/01 09:41:12;;;;;;;10.10;3.15;;;;;;;5.40;100.00;100171.84;4986016;28;20038;-79
2024/01/01 09:43:42;;;;;;;11.85;4.03;;;;;;;5.40;100.00;100170.06;4995273;28;20295;-78
2024/01/01 09:46:08;;;;;;;11.48;4.45;;;;;;;5.52;100.00;100173.09;5003088;28;20034;-79
2024/01/01 09:48:33;;;;;;;12.95;3.65;;;;;;;5.57;100.00;100168.53;4985396;28;20033;-80
2024/01/01 09:51:02;;;;;;;8.05;3.40;;;;;;;5.65;100.00;100188.41;5003513;28;20038;-78
2024/01/01 09:53:27;;;;;;;11.32;3.75;;;;;;;5.67;100.00;100170.72;5005729;28;20575;-78
2024/01/01 09:55:53;;;;;;;10.93;3.03;;;;;;;5.87;100.00;100198.06;4986174;28;20037;-78
2024/01/01 09:58:19;;;;;;;11.75;3.42;;;;;;;5.71;100.00;100167.03;5005072;28;20038;-77
2024/01/01 10:00:45;;;;;;;10.88;3.70;;;;;;;5.72;100.00;100173.16;4985022;28;20492;-79
2024/01/01 10:03:11;;;;;;;11.15;3.03;;;;;;;5.97;100.00;100202.94;5005985;28;20366;-78
2024/01/01 10:05:40;;;;;;;11.35;3.45;;;;;;;5.78;100.00;100165.00;4989338;28;20021;-78
2024/01/01 10:08:11;;;;;;;9.75;3.47;;;;;;;6.01;100.00;100213.38;4986062;28;20038;-77
2024/01/01 10:10:39;;;;;;;11.18;3.55;;;;;;;6.01;100.00;100202.81;4982658;28;20369;-77
2024/01/01 10:13:12;;;;;;;14.85;3.83;;;;;;;5.83;100.00;100202.63;5004995;28;20485;-78
2024/01/01 10:15:40;;;;;;;9.07;3.30;;;;;;;5.97;100.00;100217.91;4992969;28;20030;-79
2024/01/01 10:18:16;;;;;;;9.60;3.45;;;;;;;5.84;100.00;100233.38;5003989;28;20037;-79
2024/01/01 10:20:43;;;;;;;8.90;3.50;;;;;;;5.73;100.00;100240.91;5006246;28;20060;-78
2024/01/01 10:23:21;;;;;;;8.80;3.22;;;;;;;5.65;100.00;100243.00;5005080;28;20048;-77
2024/01/01 10:25:49;;;;;;;10.20;3.75;;;;;;;5.58;100.00;100225.66;5005378;28;20065;-78
2024/01/01 10:28:16;;;;;;;11.27;4.20;;;;;;;5.57;100.00;100231.88;5006087;28;20034;-78
2024/01/01 10:30:49;;;;;;;8.70;3.67;;;;;;;5.62;100.00;100251.03;5000251;28;20042;-77
2024/01/01 10:33:16;;;;;;;12.05;4.15;;;;;;;5.38;100.00;100216.75;5002333;28;20069;-77
2024/01/01 10:35:42;;;;;;;10.27;3.90;;;;;;;5.55;100.00;100255.69;4989312;28;20030;-76
2024/01/01 10:38:08;;;;;;;12.85;4.28;;;;;;;5.58;100.00;100250.28;4993441;28;20385;-78
2024/01/01 10:40:34;;;;;;;10.60;3.92;;;;;;;5.52;100.00;100239.09;4987162;28;20038;-77
2024/01/01 10:43:04;;;;;;;12.93;3.85;;;;;;;5.55;100.00;100246.91;4994417;28;20041;-78
2024/01/01 10:45:30;;;;;;;14.70;3.97;;;;;;;5.56;100.00;100232.78;4996247;28;20038;-79
2024/01/01 10:47:59;;;;;;;14.57;4.20;;;;;;;5.79;100.00;100253.84;4998110;28;20103;-79
2024/01/01 10:50:30;;;;;;;14.77;4.28;;;;;;;5.83;100.00;100271.28;5013976;28;20149;-78
2024/01/01 10:53:34;;;;;;;12.00;3.60;;;;;;;5.83;100.00;100266.00;5016507;28;20037;-78
2024/01/01 10:56:34;;;;;;;14.05;4.53;;;;;;;5.73;100.00;100251.47;5016590;28;20042;-78
2024/01/01 10:59:05;;;;;;;13.55;4.18;;;;;;;5.81;100.00;100266.97;5009621;28;20121;-77
2024/01/01 11:01:32;;;;;;;13.80;4.50;;;;;;;5.92;100.00;100268.31;5011758;28;20026;-78
2024/01/01 11:03:57;;;;;;;12.65;4.22;;;;;;;5.84;100.00;100238.66;4995741;28;20046;-78
2024/01/01 11:06:31;;;;;;;12.23;4.80;;;;;;;6.03;100.00;100277.59;4991214;28;20300;-76
2024/01/01 11:08:59;;;;;;;;;;;;;;;6.06;100.00;100266.88;4991410;28;20042;-77
2024/01/01 11:11:30;;;;;;;16.17;4.68;;;;;;;6.06;100.00;100269.50;4999611;28;19987;-79
2024/01/01 11:14:00;;;;;;;17.25;4.22;;;;;;;6.14;100.00;100267.41;5017803;28;20037;-79
2024/01/01 11:16:28;;;;;;;14.90;4.82;;;;;;;6.07;100.00;100247.47;4984147;28;20072;-79
2024/01/01 11:18:57;;;;;;;17.42;4.40;;;;;;;6.38;100.00;100284.03;5012975;28;20334;-77
2024/01/01 11:21:27;;;;;;;12.63;3.75;;;;;;;6.33;100.00;100259.59;4991046;28;20148;-77